createdAt,value
2024-01-11T00:00:55.128Z,46.8
2024-01-11T00:02:12.234Z,46.4
2024-01-11T00:03:28.356Z,43.8
2024-01-11T00:04:45.462Z,43.6
2024-01-11T00:06:02.567Z,44.9
2024-01-11T00:07:19.673Z,46.6
2024-01-11T00:08:36.779Z,42.4
2024-01-11T00:09:53.884Z,41.8
2024-01-11T00:11:10.990Z,44.4
2024-01-11T00:12:28.097Z,45.3
2024-01-11T00:13:45.203Z,45.8
2024-01-11T00:15:02.309Z,44.3
2024-01-11T00:16:19.414Z,45.4
2024-01-11T00:17:36.520Z,43.2
2024-01-11T00:18:53.626Z,41.1
2024-01-11T00:20:09.748Z,40.5
2024-01-11T00:21:26.854Z,44.5
2024-01-11T00:22:43.959Z,39.6
2024-01-11T00:24:01.065Z,45.4
2024-01-11T00:25:18.171Z,39.9
2024-01-11T00:26:35.277Z,38.2
2024-01-11T00:27:52.383Z,40.5
2024-01-11T00:29:09.488Z,40.6
2024-01-11T00:30:26.594Z,42.3
2024-01-11T00:31:43.700Z,41
2024-01-11T00:33:00.805Z,39.6
2024-01-11T00:34:17.911Z,40.9
2024-01-11T00:35:35.017Z,40.2
2024-01-11T00:36:51.139Z,37.5
2024-01-11T00:38:08.245Z,38
2024-01-11T00:39:25.350Z,38.6
2024-01-11T00:40:42.456Z,40.6
2024-01-11T00:41:59.563Z,37.6
2024-01-11T00:43:16.668Z,40
2024-01-11T00:44:33.774Z,39.7
2024-01-11T00:45:50.880Z,41.2
2024-01-11T00:47:07.985Z,41.7
2024-01-11T00:48:25.092Z,40
2024-01-11T00:49:42.197Z,41.1
2024-01-11T00:50:59.303Z,40.9
2024-01-11T00:52:16.409Z,37.2
2024-01-11T00:53:32.531Z,39.5
2024-01-11T00:54:49.637Z,40.5
2024-01-11T00:56:06.743Z,38.6
2024-01-11T00:57:23.849Z,41
2024-01-11T00:58:40.955Z,41.9
2024-01-11T00:59:58.061Z,42.4
2024-01-11T01:01:15.167Z,44.3
2024-01-11T01:02:32.273Z,43.1
2024-01-11T01:03:49.379Z,41.5
2024-01-11T01:05:06.484Z,44.1
2024-01-11T01:06:23.590Z,42.2
2024-01-11T01:07:40.696Z,46.6
2024-01-11T01:08:57.802Z,47.5
2024-01-11T01:10:13.924Z,47.8
2024-01-11T01:11:31.030Z,45.9
2024-01-11T01:12:48.136Z,44.4
2024-01-11T01:14:05.243Z,42.9
2024-01-11T01:15:22.349Z,43.3
2024-01-11T01:16:39.455Z,41.9
2024-01-11T01:17:56.561Z,42.9
2024-01-11T01:19:13.667Z,40.6
2024-01-11T01:20:30.773Z,39.1
2024-01-11T01:21:47.880Z,39.3
2024-01-11T01:23:04.986Z,40.4
2024-01-11T01:24:22.092Z,41.7
2024-01-11T01:25:39.198Z,41
2024-01-11T01:26:55.320Z,40.1
2024-01-11T01:28:12.426Z,39.3
2024-01-11T01:29:29.532Z,47.9
2024-01-11T01:30:46.639Z,44.3
2024-01-11T01:32:03.743Z,45.1
2024-01-11T01:33:20.849Z,45.6
2024-01-11T01:34:37.955Z,46.7
2024-01-11T01:35:55.061Z,45.2
2024-01-11T01:37:12.167Z,40
2024-01-11T01:38:29.273Z,40.1
2024-01-11T01:39:46.380Z,40.7
2024-01-11T01:41:03.486Z,40.6
2024-01-11T01:42:20.592Z,39.9
2024-01-11T01:43:36.714Z,40
2024-01-11T01:44:53.821Z,38.5
2024-01-11T01:46:10.925Z,39.4
2024-01-11T01:47:28.030Z,41.9
2024-01-11T01:48:45.136Z,40.7
2024-01-11T01:50:02.242Z,38.4
2024-01-11T01:51:19.348Z,42.2
2024-01-11T01:52:36.454Z,45.7
2024-01-11T01:53:53.560Z,47.2
2024-01-11T01:55:10.667Z,43.8
2024-01-11T01:56:27.773Z,42.6
2024-01-11T01:57:44.879Z,44.5
2024-01-11T01:59:01.984Z,44.3
2024-01-11T02:00:18.106Z,50.2
2024-01-11T02:01:35.213Z,48.8
2024-01-11T02:02:52.318Z,51.7
2024-01-11T02:04:09.424Z,47.6
2024-01-11T02:05:26.530Z,47.5
2024-01-11T02:06:43.637Z,47.5
2024-01-11T02:08:00.743Z,48.7
2024-01-11T02:09:17.849Z,42.8
2024-01-11T02:10:34.955Z,40.9
2024-01-11T02:11:52.062Z,43.8
2024-01-11T02:13:09.168Z,45
2024-01-11T02:14:26.274Z,45.2
2024-01-11T02:15:43.380Z,39.9
2024-01-11T02:16:59.502Z,43.9
2024-01-11T02:18:16.609Z,38.9
2024-01-11T02:19:33.715Z,39.4
2024-01-11T02:20:50.822Z,39.1
2024-01-11T02:22:07.928Z,39.4
2024-01-11T02:23:25.034Z,39.8
2024-01-11T02:24:41.156Z,38.2
2024-01-11T02:25:58.262Z,38
2024-01-11T02:27:15.368Z,37.9
2024-01-11T02:28:32.474Z,41.5
2024-01-11T02:29:49.581Z,39.5
2024-01-11T02:31:06.687Z,40.3
2024-01-11T02:32:23.793Z,43.1
2024-01-11T02:33:40.899Z,42.7
2024-01-11T02:34:58.005Z,43.4
2024-01-11T02:36:15.111Z,38.3
2024-01-11T02:37:32.216Z,41.7
2024-01-11T02:38:49.322Z,40.1
2024-01-11T02:40:06.429Z,38.8
2024-01-11T02:41:22.551Z,40
2024-01-11T02:42:39.656Z,39.1
2024-01-11T02:43:56.762Z,42.4
2024-01-11T02:45:13.868Z,39.6
2024-01-11T02:46:30.975Z,40.8
2024-01-11T02:47:48.081Z,42
2024-01-11T02:49:05.187Z,36.7
2024-01-11T02:50:22.294Z,38.5
2024-01-11T02:51:39.401Z,40.8
2024-01-11T02:52:56.507Z,40.7
2024-01-11T02:54:13.613Z,39.2
2024-01-11T02:55:30.719Z,39.3
2024-01-11T02:56:47.825Z,44.3
2024-01-11T02:58:03.947Z,40.8
2024-01-11T02:59:21.053Z,39.8
2024-01-11T03:00:38.160Z,39.5
2024-01-11T03:01:55.266Z,44.7
2024-01-11T03:03:12.372Z,47
2024-01-11T03:04:29.478Z,42.5
2024-01-11T03:05:46.584Z,45.5
2024-01-11T03:07:03.690Z,45
2024-01-11T03:08:20.797Z,44.9
2024-01-11T03:09:37.903Z,45.5
2024-01-11T03:10:55.010Z,43.9
2024-01-11T03:12:12.116Z,44.3
2024-01-11T03:13:29.223Z,44.5
2024-01-11T03:14:45.345Z,49.2
2024-01-11T03:16:02.451Z,48.6
2024-01-11T03:17:19.558Z,41.3
2024-01-11T03:18:36.664Z,43.5
2024-01-11T03:19:53.771Z,43.1
2024-01-11T03:21:10.877Z,42.8
2024-01-11T03:22:27.984Z,45.5
2024-01-11T03:23:45.090Z,46
2024-01-11T03:25:02.197Z,40.1
2024-01-11T03:26:19.304Z,39
2024-01-11T03:27:36.410Z,40.3
2024-01-11T03:28:53.517Z,41.3
2024-01-11T03:30:10.623Z,43
2024-01-11T03:31:26.746Z,42.9
2024-01-11T03:32:43.852Z,43.1
2024-01-11T03:34:00.959Z,42.4
2024-01-11T03:35:18.065Z,39.3
2024-01-11T03:36:35.172Z,40.9
2024-01-11T03:37:52.279Z,38.6
2024-01-11T03:39:09.385Z,41.2
2024-01-11T03:40:26.492Z,39.3
2024-01-11T03:41:43.598Z,37.8
2024-01-11T03:43:00.705Z,44.3
2024-01-11T03:44:17.811Z,40
2024-01-11T03:45:34.918Z,46.9
2024-01-11T03:46:52.024Z,46.8
2024-01-11T03:48:08.147Z,46.7
2024-01-11T03:49:25.253Z,45.2
2024-01-11T03:50:42.360Z,48.1
2024-01-11T03:51:59.466Z,46.8
2024-01-11T03:53:16.573Z,45.7
2024-01-11T03:54:33.679Z,40.4
2024-01-11T03:55:50.786Z,40.9
2024-01-11T03:57:07.892Z,40.1
2024-01-11T03:58:24.999Z,43.3
2024-01-11T03:59:42.105Z,45.7
2024-01-11T04:00:59.212Z,48.3
2024-01-11T04:02:16.318Z,46.7
2024-01-11T04:03:33.424Z,46.3
2024-01-11T04:04:49.547Z,43.6
2024-01-11T04:06:06.653Z,39.5
2024-01-11T04:07:23.760Z,42.6
2024-01-11T04:08:40.866Z,41.2
2024-01-11T04:09:57.973Z,39.3
2024-01-11T04:11:15.079Z,39.8
2024-01-11T04:12:32.186Z,42.7
2024-01-11T04:13:49.292Z,41
2024-01-11T04:15:06.399Z,37.7
2024-01-11T04:16:23.505Z,41.4
2024-01-11T04:17:40.611Z,40
2024-01-11T04:18:57.718Z,36.6
2024-01-11T04:20:14.825Z,38.3
2024-01-11T04:21:30.947Z,39
2024-01-11T04:22:48.053Z,38.9
2024-01-11T04:24:05.161Z,41.1
2024-01-11T04:25:22.267Z,40
2024-01-11T04:26:39.374Z,38.9
2024-01-11T04:27:56.480Z,40.6
2024-01-11T04:29:13.587Z,39.4
2024-01-11T04:30:30.693Z,38.1
2024-01-11T04:31:47.800Z,38.7
2024-01-11T04:33:04.907Z,38
2024-01-11T04:34:22.013Z,40.1
2024-01-11T04:35:39.120Z,37.6
2024-01-11T04:36:56.226Z,40.9
2024-01-11T04:38:12.349Z,43
2024-01-11T04:39:29.455Z,40.3
2024-01-11T04:40:46.561Z,38.9
2024-01-11T04:42:03.668Z,40.7
2024-01-11T04:43:20.775Z,37.5
2024-01-11T04:44:37.881Z,40
2024-01-11T04:45:54.987Z,40.6
2024-01-11T04:47:12.094Z,42
2024-01-11T04:48:29.200Z,37.9
2024-01-11T04:49:46.306Z,38.5
2024-01-11T04:51:03.413Z,39.8
2024-01-11T04:52:20.519Z,40.7
2024-01-11T04:53:37.626Z,39.6
2024-01-11T04:54:53.748Z,40.1
2024-01-11T04:56:10.855Z,40.3
2024-01-11T04:57:27.961Z,40.9
2024-01-11T04:58:45.068Z,43.3
2024-01-11T05:00:02.174Z,42.9
2024-01-11T05:01:19.281Z,40.2
2024-01-11T05:02:36.387Z,41.7
2024-01-11T05:03:53.494Z,40.3
2024-01-11T05:05:10.601Z,39.8
2024-01-11T05:06:27.707Z,41.2
2024-01-11T05:07:44.815Z,43.7
2024-01-11T05:09:01.922Z,43.2
2024-01-11T05:10:19.028Z,40.5
2024-01-11T05:11:35.151Z,42.5
2024-01-11T05:12:52.257Z,43.1
2024-01-11T05:14:09.364Z,42.7
2024-01-11T05:15:26.470Z,42.4
2024-01-11T05:16:43.577Z,43.7
2024-01-11T05:18:00.684Z,41.1
2024-01-11T05:19:17.790Z,41.2
2024-01-11T05:20:34.896Z,42.8
2024-01-11T05:21:52.003Z,40.6
2024-01-11T05:23:09.109Z,39.9
2024-01-11T05:24:26.216Z,42.7
2024-01-11T05:25:43.322Z,39.7
2024-01-11T05:27:00.429Z,42
2024-01-11T05:28:16.552Z,39.8
2024-01-11T05:29:33.658Z,40.6
2024-01-11T05:30:50.764Z,41.8
2024-01-11T05:32:07.871Z,40.7
2024-01-11T05:33:24.977Z,40.8
2024-01-11T05:34:42.084Z,43
2024-01-11T05:35:59.190Z,41.8
2024-01-11T05:37:16.297Z,41.2
2024-01-11T05:38:33.404Z,39.4
2024-01-11T05:39:50.510Z,41.9
2024-01-11T05:41:07.616Z,41.9
2024-01-11T05:42:24.723Z,40.8
2024-01-11T05:43:41.829Z,41.6
2024-01-11T05:44:57.952Z,41.3
2024-01-11T05:46:15.058Z,42.3
2024-01-11T05:47:32.165Z,51.2
2024-01-11T05:48:49.271Z,50.3
2024-01-11T05:50:06.378Z,44.3
2024-01-11T05:51:23.484Z,42.6
2024-01-11T05:52:40.590Z,43.2
2024-01-11T05:53:57.697Z,41.7
2024-01-11T05:55:14.803Z,41
2024-01-11T05:56:31.910Z,42.5
2024-01-11T05:57:49.016Z,41.6
2024-01-11T05:59:06.123Z,43.3
2024-01-11T06:00:23.229Z,41.5
2024-01-11T06:01:39.352Z,40.9
2024-01-11T06:02:56.458Z,41.9
2024-01-11T06:04:13.565Z,41.5
2024-01-11T06:05:30.671Z,40.7
2024-01-11T06:06:47.777Z,42.3
2024-01-11T06:08:04.884Z,40.6
2024-01-11T06:09:21.990Z,40.6
2024-01-11T06:10:39.097Z,41.3
2024-01-11T06:11:56.204Z,41.2
2024-01-11T06:13:13.310Z,42.7
2024-01-11T06:14:30.417Z,42.6
2024-01-11T06:15:47.523Z,44.5
2024-01-11T06:17:04.630Z,45.4
2024-01-11T06:18:20.752Z,43.2
2024-01-11T06:19:37.859Z,42.8
2024-01-11T06:20:54.965Z,43.7
2024-01-11T06:22:12.072Z,42.2
2024-01-11T06:23:29.178Z,45.3
2024-01-11T06:24:46.285Z,43.3
2024-01-11T06:26:03.391Z,46.8
2024-01-11T06:27:20.498Z,45.3
2024-01-11T06:28:37.604Z,45.2
2024-01-11T06:29:54.711Z,48.3
2024-01-11T06:31:11.817Z,44
2024-01-11T06:32:28.924Z,46.1
2024-01-11T06:33:46.030Z,44.3
2024-01-11T06:35:02.153Z,44.1
2024-01-11T06:36:19.259Z,46
2024-01-11T06:37:36.366Z,44.1
2024-01-11T06:38:53.472Z,45.2
2024-01-11T06:40:10.579Z,46.5
2024-01-11T06:41:27.685Z,47.4
2024-01-11T06:42:43.808Z,44.6
2024-01-11T06:44:00.914Z,49.8
2024-01-11T06:45:18.021Z,49.6
2024-01-11T06:46:35.128Z,47.7
2024-01-11T06:47:52.234Z,49
2024-01-11T06:49:09.341Z,50.4
2024-01-11T06:50:26.447Z,48.5
2024-01-11T06:51:43.554Z,50.3
2024-01-11T06:53:00.660Z,47.3
2024-01-11T06:54:17.766Z,45.7
2024-01-11T06:55:34.873Z,44.9
2024-01-11T06:56:51.980Z,47.3
2024-01-11T06:58:09.086Z,45.9
2024-01-11T06:59:25.209Z,45.4
2024-01-11T07:00:42.315Z,45.4
2024-01-11T07:01:59.421Z,43.4
2024-01-11T07:03:16.528Z,43.6
2024-01-11T07:04:33.634Z,52.2
2024-01-11T07:05:50.741Z,55.2
2024-01-11T07:07:07.847Z,73.8
2024-01-11T07:08:24.954Z,71.9
2024-01-11T07:09:42.060Z,77
2024-01-11T07:10:59.167Z,83
2024-01-11T07:12:16.273Z,65.2
2024-01-11T07:13:33.379Z,60.5
2024-01-11T07:14:50.486Z,60.9
2024-01-11T07:16:06.608Z,70.6
2024-01-11T07:17:23.715Z,67.9
2024-01-11T07:18:40.821Z,51.3
2024-01-11T07:19:57.928Z,51.5
2024-01-11T07:21:15.034Z,52.2
2024-01-11T07:22:32.141Z,51.6
2024-01-11T07:23:49.247Z,49.1
2024-01-11T07:25:06.354Z,49.2
2024-01-11T07:26:23.460Z,45.7
2024-01-11T07:27:40.567Z,47.7
2024-01-11T07:28:57.673Z,47.4
2024-01-11T07:30:14.780Z,44.6
2024-01-11T07:31:31.887Z,46
2024-01-11T07:32:48.009Z,47.7
2024-01-11T07:34:05.116Z,45.4
2024-01-11T07:35:22.222Z,49.4
2024-01-11T07:36:39.329Z,49
2024-01-11T07:37:56.436Z,47.5
2024-01-11T07:39:13.542Z,47.1
2024-01-11T07:40:30.649Z,54.4
2024-01-11T07:41:47.756Z,61.8
2024-01-11T07:43:04.862Z,49.4
2024-01-11T07:44:21.969Z,49.4
2024-01-11T07:45:39.076Z,50.6
2024-01-11T07:46:56.182Z,50.9
2024-01-11T07:48:13.289Z,48.5
2024-01-11T07:49:29.411Z,48.1
2024-01-11T07:50:46.518Z,45.7
2024-01-11T07:52:03.624Z,43.3
2024-01-11T07:53:20.731Z,42
2024-01-11T07:54:37.838Z,42.9
2024-01-11T07:55:54.944Z,42.2
2024-01-11T07:57:12.052Z,43.5
2024-01-11T07:58:29.158Z,41.3
2024-01-11T07:59:46.265Z,38.8
2024-01-11T08:01:03.371Z,41.7
2024-01-11T08:02:20.479Z,41
2024-01-11T08:03:37.586Z,41.1
2024-01-11T08:04:54.692Z,47.2
2024-01-11T08:06:10.814Z,47
2024-01-11T08:07:27.920Z,46.7
2024-01-11T08:08:45.026Z,46
2024-01-11T08:10:02.132Z,45.2
2024-01-11T08:11:19.238Z,40.9
2024-01-11T08:12:36.343Z,40.7
2024-01-11T08:13:53.449Z,41.6
2024-01-11T08:15:10.555Z,41.6
2024-01-11T08:16:27.661Z,41.9
2024-01-11T08:17:44.767Z,42.7
2024-01-11T08:19:01.873Z,40.6
2024-01-11T08:20:18.978Z,39.9
2024-01-11T08:21:36.083Z,34.6
2024-01-11T08:22:52.205Z,36.8
2024-01-11T08:24:09.311Z,34.4
2024-01-11T08:25:26.417Z,36.5
2024-01-11T08:26:43.523Z,35.6
2024-01-11T08:28:00.628Z,35.3
2024-01-11T08:29:17.733Z,36.5
2024-01-11T08:30:34.839Z,39.4
2024-01-11T08:31:51.945Z,44.6
2024-01-11T08:33:09.050Z,45.8
2024-01-11T08:34:26.155Z,49.8
2024-01-11T08:35:43.261Z,44.8
2024-01-11T08:37:00.366Z,39.9
2024-01-11T08:38:17.471Z,36.1
2024-01-11T08:39:33.592Z,35.9
2024-01-11T08:40:50.697Z,36.8
2024-01-11T08:42:07.802Z,36.5
2024-01-11T08:43:24.907Z,35.3
2024-01-11T08:44:42.012Z,36.6
2024-01-11T08:45:59.117Z,37.3
2024-01-11T08:47:16.222Z,37.9
2024-01-11T08:48:33.327Z,36.3
2024-01-11T08:49:50.432Z,37.8
2024-01-11T08:51:07.537Z,36.5
2024-01-11T08:52:24.642Z,36.1
2024-01-11T08:53:41.747Z,37.8
2024-01-11T08:54:58.852Z,38.9
2024-01-11T08:56:14.972Z,36.1
2024-01-11T08:57:32.075Z,35.4
2024-01-11T08:58:49.180Z,36.1
2024-01-11T09:00:06.285Z,36.3
2024-01-11T09:01:23.389Z,43.8
2024-01-11T09:02:40.494Z,43.3
2024-01-11T09:03:57.599Z,38.1
2024-01-11T09:05:14.703Z,41
2024-01-11T09:06:31.808Z,39.5
2024-01-11T09:07:48.912Z,37.4
2024-01-11T09:09:06.017Z,37.3
2024-01-11T09:10:23.121Z,38.7
2024-01-11T09:11:40.226Z,36.8
2024-01-11T09:12:56.347Z,35.9
2024-01-11T09:14:13.451Z,35.7
2024-01-11T09:15:30.556Z,35.9
2024-01-11T09:16:47.661Z,39.4
2024-01-11T09:18:04.765Z,39.2
2024-01-11T09:19:21.870Z,40.9
2024-01-11T09:20:38.976Z,38.8
2024-01-11T09:21:56.081Z,37.6
2024-01-11T09:23:13.185Z,37.2
2024-01-11T09:24:30.290Z,35.1
2024-01-11T09:25:47.394Z,36.9
2024-01-11T09:27:04.499Z,35.6
2024-01-11T09:28:21.603Z,40.6
2024-01-11T09:29:37.723Z,53.6
2024-01-11T09:30:54.828Z,50.8
2024-01-11T09:32:11.932Z,53.7
2024-01-11T09:33:29.037Z,51.6
2024-01-11T09:34:46.141Z,58.7
2024-01-11T09:36:03.245Z,65.9
2024-01-11T09:37:20.349Z,101.6
2024-01-11T09:38:37.454Z,72
2024-01-11T09:39:54.558Z,53.6
2024-01-11T09:41:11.662Z,40
2024-01-11T09:42:28.767Z,42.3
2024-01-11T09:43:45.871Z,35.9
2024-01-11T09:45:02.976Z,35.3
2024-01-11T09:46:19.096Z,39.5
2024-01-11T09:47:36.201Z,44.6
2024-01-11T09:48:53.305Z,44.2
2024-01-11T09:50:10.409Z,33.9
2024-01-11T09:51:27.514Z,31.8
2024-01-11T09:52:44.618Z,33.9
2024-01-11T09:54:01.722Z,31.9
2024-01-11T09:55:18.827Z,31.3
2024-01-11T09:56:35.931Z,31.2
2024-01-11T09:57:53.036Z,33.7
2024-01-11T09:59:10.140Z,31.7
2024-01-11T10:00:27.245Z,33
2024-01-11T10:01:44.349Z,32.4
2024-01-11T10:03:00.469Z,31.2
2024-01-11T10:04:17.574Z,29.8
2024-01-11T10:05:34.678Z,30.5
2024-01-11T10:06:51.783Z,29.7
2024-01-11T10:08:08.887Z,29.7
2024-01-11T10:09:25.991Z,30.1
2024-01-11T10:10:43.095Z,32.3
2024-01-11T10:12:00.200Z,32.1
2024-01-11T10:13:17.304Z,28.7
2024-01-11T10:14:34.408Z,30.3
2024-01-11T10:15:51.513Z,29.6
2024-01-11T10:17:08.617Z,29
2024-01-11T10:18:25.721Z,34.9
2024-01-11T10:19:41.842Z,26.9
2024-01-11T10:20:58.946Z,44.5
2024-01-11T10:22:16.050Z,27.9
2024-01-11T10:23:33.155Z,27.5
2024-01-11T10:24:50.259Z,31.4
2024-01-11T10:26:07.363Z,26.1
2024-01-11T10:27:24.468Z,25.6
2024-01-11T10:28:41.572Z,26.7
2024-01-11T10:29:58.677Z,27.8
2024-01-11T10:31:15.781Z,26.6
2024-01-11T10:32:32.886Z,25.1
2024-01-11T10:33:49.990Z,26.5
2024-01-11T10:35:07.095Z,29.6
2024-01-11T10:36:23.216Z,27.4
2024-01-11T10:37:40.320Z,28.1
2024-01-11T10:38:57.425Z,26.1
2024-01-11T10:40:14.530Z,27
2024-01-11T10:41:31.634Z,30.2
2024-01-11T10:42:48.739Z,28.7
2024-01-11T10:44:05.844Z,27
2024-01-11T10:45:22.949Z,26.1
2024-01-11T10:46:40.054Z,24.6
2024-01-11T10:47:57.158Z,24.2
2024-01-11T10:49:14.261Z,24.4
2024-01-11T10:50:31.366Z,24.8
2024-01-11T10:51:48.471Z,24.4
2024-01-11T10:53:04.592Z,26.3
2024-01-11T10:54:21.696Z,24.5
2024-01-11T10:55:38.801Z,23.6
2024-01-11T10:56:55.906Z,25.4
2024-01-11T10:58:13.011Z,24.5
2024-01-11T10:59:30.115Z,22.2
2024-01-11T11:00:46.236Z,23.5
2024-01-11T11:02:03.341Z,23.6
2024-01-11T11:03:20.446Z,23.4
2024-01-11T11:04:37.551Z,23.3
2024-01-11T11:05:54.656Z,20.6
2024-01-11T11:07:11.761Z,21.3
2024-01-11T11:08:28.866Z,19.9
2024-01-11T11:09:45.971Z,21
2024-01-11T11:11:03.076Z,19.7
2024-01-11T11:12:20.181Z,19.3
2024-01-11T11:13:37.286Z,19.1
2024-01-11T11:14:54.391Z,19.1
2024-01-11T11:16:11.496Z,20
2024-01-11T11:17:27.617Z,18.6
2024-01-11T11:18:44.722Z,17.4
2024-01-11T11:20:01.827Z,18.5
2024-01-11T11:21:18.932Z,18.2
2024-01-11T11:22:36.037Z,17.6
2024-01-11T11:23:53.142Z,18.1
2024-01-11T11:25:10.247Z,17.1
2024-01-11T11:26:27.352Z,21.9
2024-01-11T11:27:44.457Z,20.4
2024-01-11T11:29:01.561Z,21.5
2024-01-11T11:30:18.666Z,30
2024-01-11T11:31:35.771Z,22
2024-01-11T11:32:52.876Z,25.3
2024-01-11T11:34:08.997Z,26.7
2024-01-11T11:35:26.102Z,29.9
2024-01-11T11:36:43.207Z,16.6
2024-01-11T11:38:00.312Z,17.4
2024-01-11T11:39:17.417Z,16.6
2024-01-11T11:40:34.521Z,17.7
2024-01-11T11:41:51.626Z,14.3
2024-01-11T11:43:08.731Z,15.2
2024-01-11T11:44:25.836Z,17.3
2024-01-11T11:45:42.941Z,16.4
2024-01-11T11:47:00.046Z,17.6
2024-01-11T11:48:17.151Z,15.5
2024-01-11T11:49:34.256Z,15.6
2024-01-11T11:50:50.376Z,16
2024-01-11T11:52:07.481Z,15.1
2024-01-11T11:53:24.586Z,14
2024-01-11T11:54:41.691Z,13.7
2024-01-11T11:55:58.796Z,15.6
2024-01-11T11:57:15.900Z,15.3
2024-01-11T11:58:33.005Z,14.5
2024-01-11T11:59:50.110Z,14.4
2024-01-11T12:01:07.215Z,13.2
2024-01-11T12:02:24.321Z,14.6
2024-01-11T12:03:41.426Z,12.9
2024-01-11T12:04:58.530Z,16.5
2024-01-11T12:06:15.635Z,14.9
2024-01-11T12:07:31.756Z,14.6
2024-01-11T12:08:48.861Z,15.9
2024-01-11T12:10:05.966Z,14.6
2024-01-11T12:11:23.071Z,14.1
2024-01-11T12:12:40.176Z,14.7
2024-01-11T12:13:57.281Z,14.8
2024-01-11T12:15:14.386Z,14.5
2024-01-11T12:16:31.491Z,15.8
2024-01-11T12:17:48.596Z,15.5
2024-01-11T12:19:05.700Z,16.2
2024-01-11T12:20:22.806Z,19.2
2024-01-11T12:21:39.910Z,21.3
2024-01-11T12:22:57.015Z,22.9
2024-01-11T12:24:13.136Z,22.4
2024-01-11T12:25:30.241Z,19.3
2024-01-11T12:26:47.345Z,17.6
2024-01-11T12:28:04.450Z,17.7
2024-01-11T12:29:21.555Z,17.3
2024-01-11T12:30:38.661Z,17.9
2024-01-11T12:31:55.766Z,17.8
2024-01-11T12:33:12.870Z,18.1
2024-01-11T12:34:29.975Z,24.2
2024-01-11T12:35:47.080Z,20.5
2024-01-11T12:37:04.185Z,25.8
2024-01-11T12:38:21.290Z,17.1
2024-01-11T12:39:38.394Z,17.4
2024-01-11T12:40:54.515Z,25.7
2024-01-11T12:42:11.621Z,26.9
2024-01-11T12:43:28.726Z,33.7
2024-01-11T12:44:45.831Z,27.1
2024-01-11T12:46:02.936Z,25.9
2024-01-11T12:47:20.040Z,23.8
2024-01-11T12:48:37.145Z,16.9
2024-01-11T12:49:54.250Z,19
2024-01-11T12:51:11.355Z,21.7
2024-01-11T12:52:28.459Z,22.6
2024-01-11T12:53:45.564Z,26.5
2024-01-11T12:55:02.669Z,23.9
2024-01-11T12:56:19.774Z,30.5
2024-01-11T12:57:35.895Z,27.8
2024-01-11T12:58:53.000Z,27
2024-01-11T13:00:10.104Z,19.8
2024-01-11T13:01:27.209Z,27.2
2024-01-11T13:02:44.314Z,21.2
2024-01-11T13:04:01.419Z,26.6
2024-01-11T13:05:18.525Z,34.3
2024-01-11T13:06:35.629Z,26.2
2024-01-11T13:07:52.734Z,21.1
2024-01-11T13:09:09.839Z,17.8
2024-01-11T13:10:26.944Z,16.4
2024-01-11T13:11:44.049Z,28.9
2024-01-11T13:13:01.153Z,16.7
2024-01-11T13:14:17.274Z,17.2
2024-01-11T13:15:34.379Z,15.7
2024-01-11T13:16:51.484Z,17.8
2024-01-11T13:18:08.589Z,23.4
2024-01-11T13:19:25.694Z,18.3
2024-01-11T13:20:42.799Z,18.7
2024-01-11T13:21:59.903Z,19.9
2024-01-11T13:23:17.008Z,17.6
2024-01-11T13:24:34.113Z,17.2
2024-01-11T13:25:51.218Z,19.4
2024-01-11T13:27:08.323Z,13.9
2024-01-11T13:28:25.428Z,18.2
2024-01-11T13:29:42.532Z,19.1
2024-01-11T13:30:58.653Z,16.8
2024-01-11T13:32:15.758Z,14.2
2024-01-11T13:33:32.863Z,15.9
2024-01-11T13:34:49.967Z,14.9
2024-01-11T13:36:07.072Z,17.5
2024-01-11T13:37:24.177Z,17.9
2024-01-11T13:38:41.282Z,29.1
2024-01-11T13:39:58.387Z,24.7
2024-01-11T13:41:15.492Z,23.5
2024-01-11T13:42:32.596Z,26.5
2024-01-11T13:43:49.701Z,21.7
2024-01-11T13:45:06.806Z,18.2
2024-01-11T13:46:23.912Z,17.1
2024-01-11T13:47:40.033Z,30.2
2024-01-11T13:48:57.137Z,25
2024-01-11T13:50:14.242Z,17.5
2024-01-11T13:51:31.347Z,17.2
2024-01-11T13:52:48.452Z,14.8
2024-01-11T13:54:05.557Z,15.3
2024-01-11T13:55:22.661Z,15.6
2024-01-11T13:56:39.766Z,15.9
2024-01-11T13:57:56.872Z,17.2
2024-01-11T13:59:13.977Z,15.7
2024-01-11T14:00:31.082Z,14.4
2024-01-11T14:01:48.186Z,13.1
2024-01-11T14:03:05.291Z,12.1
2024-01-11T14:04:21.412Z,13.5
2024-01-11T14:05:38.517Z,12.7
2024-01-11T14:06:55.622Z,16.2
2024-01-11T14:08:12.727Z,13.4
2024-01-11T14:09:29.831Z,13.7
2024-01-11T14:10:46.936Z,12.5
2024-01-11T14:12:04.041Z,13.4
2024-01-11T14:13:21.146Z,12.9
2024-01-11T14:14:38.251Z,15.5
2024-01-11T14:15:55.355Z,13.4
2024-01-11T14:17:12.460Z,12.5
2024-01-11T14:18:29.565Z,13.6
2024-01-11T14:19:46.670Z,13.3
2024-01-11T14:21:02.791Z,14.1
2024-01-11T14:22:19.895Z,17.4
2024-01-11T14:23:37.001Z,15.7
2024-01-11T14:24:54.105Z,15.2
2024-01-11T14:26:11.210Z,14
2024-01-11T14:27:28.315Z,12.5
2024-01-11T14:28:45.420Z,13.1
2024-01-11T14:30:02.525Z,12.6
2024-01-11T14:31:19.629Z,18.2
2024-01-11T14:32:36.734Z,15.8
2024-01-11T14:33:53.839Z,13.8
2024-01-11T14:35:10.944Z,13.8
2024-01-11T14:36:28.049Z,16.7
2024-01-11T14:37:44.170Z,22.3
2024-01-11T14:39:01.274Z,18.8
2024-01-11T14:40:18.379Z,16.9
2024-01-11T14:41:35.484Z,13.7
2024-01-11T14:42:52.589Z,18.9
2024-01-11T14:44:09.694Z,22.2
2024-01-11T14:45:26.799Z,16.5
2024-01-11T14:46:43.904Z,15.6
2024-01-11T14:48:01.008Z,15.5
2024-01-11T14:49:18.113Z,15.2
2024-01-11T14:50:35.218Z,17.9
2024-01-11T14:51:52.323Z,18.5
2024-01-11T14:53:09.428Z,18.6
2024-01-11T14:54:25.549Z,14.4
2024-01-11T14:55:42.653Z,17.9
2024-01-11T14:56:59.759Z,15.2
2024-01-11T14:58:16.863Z,16.2
2024-01-11T14:59:33.968Z,13.9
2024-01-11T15:00:51.073Z,17.9
2024-01-11T15:02:08.178Z,15.3
2024-01-11T15:03:25.283Z,15.3
2024-01-11T15:04:42.387Z,18.7
2024-01-11T15:05:59.493Z,15.3
2024-01-11T15:07:16.599Z,14.2
2024-01-11T15:08:33.703Z,17.3
2024-01-11T15:09:50.808Z,14.3
2024-01-11T15:11:06.929Z,13.3
2024-01-11T15:12:24.035Z,13.3
2024-01-11T15:13:41.140Z,13.4
2024-01-11T15:14:58.245Z,14.4
2024-01-11T15:16:15.350Z,15
2024-01-11T15:17:32.455Z,13.8
2024-01-11T15:18:48.576Z,15.3
2024-01-11T15:20:05.681Z,15
2024-01-11T15:21:22.786Z,17.6
2024-01-11T15:22:39.891Z,14.5
2024-01-11T15:23:56.996Z,16.2
2024-01-11T15:25:14.101Z,14
2024-01-11T15:26:31.205Z,15.7
2024-01-11T15:27:48.310Z,14
2024-01-11T15:29:05.415Z,14.7
2024-01-11T15:30:22.521Z,14.9
2024-01-11T15:31:39.625Z,17
2024-01-11T15:32:56.730Z,14.8
2024-01-11T15:34:13.835Z,14.7
2024-01-11T15:35:29.957Z,15.9
2024-01-11T15:36:47.061Z,14.2
2024-01-11T15:38:04.166Z,16.4
2024-01-11T15:39:21.271Z,14.6
2024-01-11T15:40:38.376Z,15.8
2024-01-11T15:41:55.481Z,14.3
2024-01-11T15:43:12.586Z,15.3
2024-01-11T15:44:29.691Z,15.9
2024-01-11T15:45:46.796Z,15
2024-01-11T15:47:03.901Z,15.8
2024-01-11T15:48:21.006Z,16.4
2024-01-11T15:49:38.111Z,15.1
2024-01-11T15:50:55.216Z,16.1
2024-01-11T15:52:11.337Z,15
2024-01-11T15:53:28.442Z,15.7
2024-01-11T15:54:45.547Z,16.3
2024-01-11T15:56:02.652Z,15.9
2024-01-11T15:57:19.758Z,15.1
2024-01-11T15:58:36.863Z,15.8
2024-01-11T15:59:53.968Z,16.4
2024-01-11T16:01:11.073Z,17.4
2024-01-11T16:02:28.178Z,16.4
2024-01-11T16:03:45.284Z,18.7
2024-01-11T16:05:02.389Z,18
2024-01-11T16:06:19.494Z,18.5
2024-01-11T16:07:36.599Z,15.9
2024-01-11T16:08:52.720Z,16.5
2024-01-11T16:10:09.825Z,15
2024-01-11T16:11:26.930Z,17.5
2024-01-11T16:12:44.036Z,16.1
2024-01-11T16:14:01.141Z,15.2
2024-01-11T16:15:18.246Z,17.4
2024-01-11T16:16:35.352Z,20
2024-01-11T16:17:52.457Z,16.4
2024-01-11T16:19:09.562Z,18.2
2024-01-11T16:20:26.667Z,16
2024-01-11T16:21:43.773Z,16.3
2024-01-11T16:23:00.878Z,16.5
2024-01-11T16:24:17.983Z,16.9
2024-01-11T16:25:34.104Z,16
2024-01-11T16:26:51.210Z,17.5
2024-01-11T16:28:08.315Z,17.1
2024-01-11T16:29:25.420Z,16.2
2024-01-11T16:30:42.526Z,15.6
2024-01-11T16:31:59.631Z,16.4
2024-01-11T16:33:16.736Z,16.5
2024-01-11T16:34:33.841Z,16.5
2024-01-11T16:35:50.947Z,19.9
2024-01-11T16:37:08.052Z,20.9
2024-01-11T16:38:25.157Z,16.8
2024-01-11T16:39:42.263Z,18.5
2024-01-11T16:40:59.368Z,18.1
2024-01-11T16:42:15.489Z,17.2
2024-01-11T16:43:32.594Z,17.9
2024-01-11T16:44:49.699Z,16.4
2024-01-11T16:46:06.805Z,17.2
2024-01-11T16:47:23.910Z,17.2
2024-01-11T16:48:41.016Z,17.3
2024-01-11T16:49:58.121Z,19.2
2024-01-11T16:51:15.226Z,18.3
2024-01-11T16:52:32.332Z,19.9
2024-01-11T16:53:49.437Z,20.6
2024-01-11T16:55:06.542Z,20.4
2024-01-11T16:56:23.648Z,20.5
2024-01-11T16:57:40.753Z,20.7
2024-01-11T16:58:56.874Z,22.9
2024-01-11T17:00:13.980Z,24
2024-01-11T17:01:31.085Z,22.8
2024-01-11T17:02:48.190Z,26.1
2024-01-11T17:04:05.296Z,21.6
2024-01-11T17:05:22.401Z,26.1
2024-01-11T17:06:39.506Z,24.8
2024-01-11T17:07:56.611Z,23.4
2024-01-11T17:09:13.716Z,25.4
2024-01-11T17:10:30.821Z,26.6
2024-01-11T17:11:47.927Z,26.7